createdAt,value
2019-05-12T00:00:39.079Z,7.80
2019-05-12T00:01:38.797Z,9.20
2019-05-12T00:02:39.473Z,6.50
2019-05-12T00:03:37.783Z,9.40
2019-05-12T00:04:38.522Z,6.10
2019-05-12T00:05:38.332Z,9.00
2019-05-12T00:06:38.670Z,8.70
2019-05-12T00:07:38.177Z,6.00
2019-05-12T00:08:38.134Z,9.20
2019-05-12T00:09:38.696Z,8.80
2019-05-12T00:10:38.639Z,10.10
2019-05-12T00:11:37.936Z,10.30
2019-05-12T00:12:38.462Z,7.50
2019-05-12T00:13:38.545Z,7.50
2019-05-12T00:14:38.170Z,5.90
2019-05-12T00:15:38.498Z,7.70
2019-05-12T00:16:38.380Z,8.10
2019-05-12T00:17:38.662Z,7.20
2019-05-12T00:18:37.789Z,8.40
2019-05-12T00:19:37.757Z,6.70
2019-05-12T00:20:38.492Z,7.60
2019-05-12T00:21:37.679Z,7.10
2019-05-12T00:22:38.164Z,7.80
2019-05-12T00:23:38.192Z,8.40
2019-05-12T00:24:38.314Z,8.50
2019-05-12T00:25:38.582Z,10.00
2019-05-12T00:26:38.272Z,8.30
2019-05-12T00:27:38.599Z,8.20
2019-05-12T00:28:37.687Z,9.00
2019-05-12T00:29:37.809Z,8.90
2019-05-12T00:30:38.697Z,10.10
2019-05-12T00:31:38.285Z,8.10
2019-05-12T00:32:38.445Z,7.80
2019-05-12T00:33:38.475Z,10.90
2019-05-12T00:34:38.547Z,10.20
2019-05-12T00:35:38.046Z,8.60
2019-05-12T00:36:37.964Z,9.50
2019-05-12T00:37:38.113Z,10.00
2019-05-12T00:38:38.209Z,11.00
2019-05-12T00:39:38.219Z,10.10
2019-05-12T00:40:38.834Z,8.60
2019-05-12T00:41:38.656Z,7.50
2019-05-12T00:42:38.156Z,9.30
2019-05-12T00:43:38.187Z,9.70
2019-05-12T00:44:36.269Z,6.80
2019-05-12T00:45:38.263Z,5.90
2019-05-12T00:46:38.363Z,7.20
2019-05-12T00:47:38.630Z,7.20
2019-05-12T00:48:37.592Z,6.20
2019-05-12T00:49:37.880Z,7.90
2019-05-12T00:50:38.192Z,7.80
2019-05-12T00:51:38.197Z,7.10
2019-05-12T00:52:37.973Z,9.60
2019-05-12T00:53:42.706Z,6.00
2019-05-12T00:54:37.597Z,7.00
2019-05-12T00:55:38.046Z,6.70
2019-05-12T00:56:36.102Z,8.80
2019-05-12T00:57:38.101Z,5.50
2019-05-12T00:58:38.135Z,7.20
2019-05-12T00:59:38.153Z,5.40
2019-05-12T01:00:36.047Z,7.00
2019-05-12T01:01:38.093Z,8.30
2019-05-12T01:02:37.983Z,8.70
2019-05-12T01:03:38.067Z,6.90
2019-05-12T01:04:38.007Z,9.20
2019-05-12T01:05:38.027Z,11.40
2019-05-12T01:06:38.473Z,8.00
2019-05-12T01:07:38.063Z,10.30
2019-05-12T01:08:37.873Z,5.10
2019-05-12T01:09:35.932Z,7.30
2019-05-12T01:10:35.923Z,8.70
2019-05-12T01:11:37.921Z,7.30
2019-05-12T01:12:37.654Z,8.30
2019-05-12T01:13:38.145Z,9.10
2019-05-12T01:14:35.889Z,11.20
2019-05-12T01:15:37.836Z,6.30
2019-05-12T01:16:38.321Z,6.40
2019-05-12T01:17:35.891Z,9.20
2019-05-12T01:18:35.865Z,8.30
2019-05-12T01:19:37.465Z,6.60
2019-05-12T01:20:35.821Z,6.60
2019-05-12T01:21:37.702Z,6.70
2019-05-12T01:22:38.151Z,7.90
2019-05-12T01:23:35.782Z,8.30
2019-05-12T01:24:37.887Z,8.40
2019-05-12T01:25:35.762Z,5.70
2019-05-12T01:26:35.751Z,7.40
2019-05-12T01:27:37.945Z,6.60
2019-05-12T01:28:38.137Z,6.80
2019-05-12T01:29:35.716Z,9.40
2019-05-12T01:30:35.708Z,8.90
2019-05-12T01:31:37.786Z,8.10
2019-05-12T01:32:38.061Z,8.60
2019-05-12T01:33:37.971Z,6.30
2019-05-12T01:34:38.182Z,7.10
2019-05-12T01:35:38.417Z,7.50
2019-05-12T01:36:37.962Z,8.70
2019-05-12T01:37:38.114Z,8.20
2019-05-12T01:38:37.803Z,9.10
2019-05-12T01:39:37.892Z,7.40
2019-05-12T01:40:35.607Z,9.00
2019-05-12T01:41:35.588Z,8.20
2019-05-12T01:42:38.034Z,8.00
2019-05-12T01:43:35.562Z,9.40
2019-05-12T01:44:38.036Z,9.20
2019-05-12T01:45:37.844Z,6.90
2019-05-12T01:46:38.125Z,8.30
2019-05-12T01:47:38.047Z,8.30
2019-05-12T01:48:37.666Z,7.40
2019-05-12T01:49:38.098Z,7.30
2019-05-12T01:50:35.530Z,9.30
2019-05-12T01:51:35.485Z,8.40
2019-05-12T01:52:35.469Z,8.80
2019-05-12T01:53:37.642Z,7.20
2019-05-12T01:54:35.471Z,6.80
2019-05-12T01:55:35.432Z,8.00
2019-05-12T01:56:35.439Z,8.10
2019-05-12T01:57:35.414Z,7.20
2019-05-12T01:58:35.415Z,8.60
2019-05-12T01:59:35.391Z,9.70
2019-05-12T02:00:35.400Z,7.80
2019-05-12T02:01:35.370Z,7.10
2019-05-12T02:02:35.369Z,7.40
2019-05-12T02:03:37.526Z,7.50
2019-05-12T02:04:35.336Z,9.00
2019-05-12T02:05:35.343Z,7.80
2019-05-12T02:06:35.315Z,7.30
2019-05-12T02:07:35.307Z,6.50
2019-05-12T02:08:35.302Z,7.20
2019-05-12T02:09:35.288Z,9.10
2019-05-12T02:10:35.292Z,7.60
2019-05-12T02:11:35.263Z,7.40
2019-05-12T02:12:35.250Z,10.10
2019-05-12T02:13:35.239Z,7.20
2019-05-12T02:14:35.238Z,7.30
2019-05-12T02:15:38.060Z,7.90
2019-05-12T02:16:35.205Z,6.50
2019-05-12T02:17:35.242Z,7.10
2019-05-12T02:18:35.186Z,8.70
2019-05-12T02:19:35.176Z,5.60
2019-05-12T02:20:35.200Z,10.20
2019-05-12T02:21:35.153Z,6.30
2019-05-12T02:22:35.140Z,7.90
2019-05-12T02:23:35.133Z,8.60
2019-05-12T02:24:35.118Z,7.80
2019-05-12T02:25:35.106Z,8.50
2019-05-12T02:26:38.055Z,6.80
2019-05-12T02:27:35.087Z,9.10
2019-05-12T02:28:35.078Z,9.00
2019-05-12T02:29:35.067Z,8.10
2019-05-12T02:30:35.104Z,6.40
2019-05-12T02:31:35.071Z,9.30
2019-05-12T02:32:47.297Z,8.80
2019-05-12T02:33:36.034Z,8.10
2019-05-12T02:34:35.189Z,8.20
2019-05-12T02:35:35.664Z,8.00
2019-05-12T02:36:34.992Z,8.80
2019-05-12T02:37:35.904Z,5.80
2019-05-12T02:38:35.004Z,5.30
2019-05-12T02:39:35.383Z,6.90
2019-05-12T02:40:35.278Z,7.30
2019-05-12T02:41:34.945Z,6.70
2019-05-12T02:42:35.080Z,12.80
2019-05-12T02:43:34.968Z,6.50
2019-05-12T02:44:34.905Z,5.60
2019-05-12T02:45:36.019Z,7.10
2019-05-12T02:46:35.182Z,9.80
2019-05-12T02:47:34.974Z,7.60
2019-05-12T02:48:35.783Z,9.50
2019-05-12T02:49:35.037Z,7.50
2019-05-12T02:50:35.907Z,9.60
2019-05-12T02:51:35.382Z,10.70
2019-05-12T02:52:34.985Z,8.70
2019-05-12T02:53:35.299Z,9.80
2019-05-12T02:54:50.544Z,10.00
2019-05-12T02:55:36.089Z,10.20
2019-05-12T02:56:35.671Z,9.30
2019-05-12T02:57:34.769Z,6.70
2019-05-12T02:58:34.942Z,7.90
2019-05-12T02:59:34.978Z,9.60
2019-05-12T03:00:35.534Z,10.80
2019-05-12T03:01:34.879Z,12.40
2019-05-12T03:02:34.901Z,10.10
2019-05-12T03:03:35.336Z,8.80
2019-05-12T03:04:35.049Z,9.20
2019-05-12T03:05:35.100Z,12.30
2019-05-12T03:06:36.166Z,8.20
2019-05-12T03:07:34.832Z,7.20
2019-05-12T03:08:35.096Z,8.10
2019-05-12T03:09:35.347Z,8.00
2019-05-12T03:10:35.415Z,6.90
2019-05-12T03:11:35.470Z,7.50
2019-05-12T03:12:34.658Z,8.10
2019-05-12T03:13:34.822Z,6.80
2019-05-12T03:14:40.340Z,9.80
2019-05-12T03:15:37.346Z,6.70
2019-05-12T03:16:35.142Z,7.10
2019-05-12T03:17:35.480Z,7.80
2019-05-12T03:18:35.017Z,9.50
2019-05-12T03:19:34.703Z,10.00
2019-05-12T03:20:35.295Z,9.60
2019-05-12T03:21:35.596Z,8.80
2019-05-12T03:22:35.271Z,7.80
2019-05-12T03:23:35.343Z,11.10
2019-05-12T03:24:34.473Z,8.30
2019-05-12T03:25:35.603Z,9.60
2019-05-12T03:26:34.802Z,8.10
2019-05-12T03:27:35.162Z,8.30
2019-05-12T03:28:35.611Z,10.20
2019-05-12T03:29:34.643Z,10.90
2019-05-12T03:30:38.160Z,5.60
2019-05-12T03:31:39.657Z,9.30
2019-05-12T03:32:37.789Z,8.00
2019-05-12T03:33:42.686Z,8.00
2019-05-12T03:34:38.395Z,8.10
2019-05-12T03:35:41.577Z,10.30
2019-05-12T03:36:41.646Z,8.30
2019-05-12T03:37:35.495Z,9.30
2019-05-12T03:38:35.993Z,9.20
2019-05-12T03:39:34.500Z,9.70
2019-05-12T03:40:37.659Z,9.40
2019-05-12T03:41:34.905Z,7.20
2019-05-12T03:42:35.487Z,8.90
2019-05-12T03:43:35.098Z,10.10
2019-05-12T03:44:35.284Z,10.00
2019-05-12T03:45:35.931Z,8.30
2019-05-12T03:46:35.333Z,8.60
2019-05-12T03:47:35.520Z,10.20
2019-05-12T03:48:35.094Z,7.70
2019-05-12T03:49:34.860Z,8.70
2019-05-12T03:50:35.392Z,8.80
2019-05-12T03:51:35.109Z,6.90
2019-05-12T03:52:35.120Z,9.20
2019-05-12T03:53:35.228Z,8.90
2019-05-12T03:54:35.081Z,9.60
2019-05-12T03:55:38.085Z,9.20
2019-05-12T03:56:35.332Z,8.90
2019-05-12T03:57:34.719Z,11.20
2019-05-12T03:58:34.758Z,9.60
2019-05-12T03:59:34.987Z,10.40
2019-05-12T04:00:35.903Z,8.90
2019-05-12T04:01:36.275Z,8.00
2019-05-12T04:02:34.272Z,9.00
2019-05-12T04:03:34.666Z,7.10
2019-05-12T04:04:34.741Z,9.10
2019-05-12T04:05:35.147Z,7.40
2019-05-12T04:06:34.761Z,9.70
2019-05-12T04:07:34.668Z,11.70
2019-05-12T04:08:34.835Z,9.60
2019-05-12T04:09:34.825Z,8.90
2019-05-12T04:10:35.463Z,8.40
2019-05-12T04:11:35.738Z,8.40
2019-05-12T04:12:34.737Z,11.00
2019-05-12T04:13:34.322Z,8.80
2019-05-12T04:14:34.657Z,7.10
2019-05-12T04:15:35.010Z,9.40
2019-05-12T04:16:36.235Z,8.40
2019-05-12T04:17:34.922Z,10.00
2019-05-12T04:18:34.812Z,8.70
2019-05-12T04:19:34.695Z,7.90
2019-05-12T04:20:35.746Z,7.80
2019-05-12T04:21:35.067Z,9.90
2019-05-12T04:22:35.256Z,10.40
2019-05-12T04:23:34.892Z,10.40
2019-05-12T04:24:35.814Z,8.90
2019-05-12T04:25:47.739Z,10.50
2019-05-12T04:26:36.296Z,8.80
2019-05-12T04:27:34.850Z,11.00
2019-05-12T04:28:35.092Z,9.90
2019-05-12T04:29:34.883Z,9.80
2019-05-12T04:30:35.503Z,9.80
2019-05-12T04:31:34.811Z,10.90
2019-05-12T04:32:35.802Z,11.30
2019-05-12T04:33:34.672Z,11.10
2019-05-12T04:34:34.383Z,14.20
2019-05-12T04:35:35.147Z,12.80
2019-05-12T04:36:35.550Z,12.10
2019-05-12T04:37:35.242Z,12.60
2019-05-12T04:38:35.459Z,16.50
2019-05-12T04:39:34.194Z,15.30
2019-05-12T04:40:35.785Z,15.00
2019-05-12T04:41:35.368Z,13.40
2019-05-12T04:42:34.964Z,11.90
2019-05-12T04:43:35.283Z,12.70
2019-05-12T04:44:34.712Z,12.70
2019-05-12T04:45:34.589Z,12.80
2019-05-12T04:46:34.655Z,11.40
2019-05-12T04:47:34.923Z,15.90
2019-05-12T04:48:35.851Z,13.40
2019-05-12T04:49:34.582Z,13.40
2019-05-12T04:50:35.425Z,15.00
2019-05-12T04:51:34.935Z,12.60
2019-05-12T04:52:35.570Z,13.80
2019-05-12T04:53:35.221Z,10.90
2019-05-12T04:54:35.540Z,9.20
2019-05-12T04:55:35.539Z,11.40
2019-05-12T04:56:35.796Z,7.80
2019-05-12T04:57:34.659Z,11.30
2019-05-12T04:58:35.063Z,8.40
2019-05-12T04:59:34.508Z,8.70
2019-05-12T05:00:34.932Z,8.40
2019-05-12T05:01:34.610Z,8.90
2019-05-12T05:02:36.303Z,10.40
2019-05-12T05:03:34.990Z,8.50
2019-05-12T05:04:34.692Z,9.50
2019-05-12T05:05:35.311Z,9.30
2019-05-12T05:06:34.235Z,10.10
2019-05-12T05:07:35.927Z,10.30
2019-05-12T05:08:34.907Z,9.90
2019-05-12T05:09:35.022Z,10.90
2019-05-12T05:10:34.341Z,8.10
2019-05-12T05:11:34.564Z,10.30
2019-05-12T05:12:34.503Z,10.20
2019-05-12T05:13:36.877Z,9.40
2019-05-12T05:14:34.282Z,11.10
2019-05-12T05:15:34.703Z,9.90
2019-05-12T05:16:34.596Z,10.80
2019-05-12T05:17:34.760Z,13.10
2019-05-12T05:18:34.413Z,9.80
2019-05-12T05:19:33.818Z,10.00
2019-05-12T05:20:34.454Z,8.00
2019-05-12T05:21:34.452Z,7.00
2019-05-12T05:22:33.455Z,9.30
2019-05-12T05:23:33.578Z,9.80
2019-05-12T05:24:33.916Z,10.10
2019-05-12T05:25:34.092Z,9.90
2019-05-12T05:26:36.701Z,9.40
2019-05-12T05:27:34.018Z,11.20
2019-05-12T05:28:34.029Z,8.20
2019-05-12T05:29:33.612Z,9.00
2019-05-12T05:30:34.143Z,12.90
2019-05-12T05:31:33.829Z,8.90
2019-05-12T05:32:33.902Z,10.10
2019-05-12T05:33:34.049Z,8.00
2019-05-12T05:34:34.260Z,10.80
2019-05-12T05:35:35.166Z,9.80
2019-05-12T05:36:34.702Z,9.60
2019-05-12T05:37:37.029Z,12.50
2019-05-12T05:38:34.372Z,9.20
2019-05-12T05:39:35.685Z,9.10
2019-05-12T05:40:35.731Z,9.50
2019-05-12T05:41:34.505Z,10.00
2019-05-12T05:42:35.551Z,9.50
2019-05-12T05:43:33.381Z,7.90
2019-05-12T05:44:36.223Z,10.90
2019-05-12T05:45:35.141Z,7.60
2019-05-12T05:46:33.596Z,12.50
2019-05-12T05:47:33.616Z,11.50
2019-05-12T05:48:35.082Z,13.10
2019-05-12T05:49:34.085Z,9.60
2019-05-12T05:50:34.338Z,9.70
2019-05-12T05:51:33.434Z,10.00
2019-05-12T05:52:38.373Z,10.00
2019-05-12T05:53:33.850Z,10.50
2019-05-12T05:54:35.806Z,9.80
2019-05-12T05:55:34.300Z,8.70
2019-05-12T05:56:41.767Z,9.90
2019-05-12T05:57:33.807Z,10.00
2019-05-12T05:58:33.921Z,9.60
2019-05-12T05:59:36.539Z,9.80
2019-05-12T06:00:35.152Z,11.60
2019-05-12T06:01:34.797Z,7.90
2019-05-12T06:02:40.179Z,13.40
2019-05-12T06:03:33.978Z,8.30
2019-05-12T06:04:34.196Z,7.90
2019-05-12T06:05:34.636Z,7.30
2019-05-12T06:06:34.189Z,9.30
2019-05-12T06:07:37.433Z,9.50
2019-05-12T06:08:33.890Z,9.50
2019-05-12T06:09:33.929Z,10.50
2019-05-12T06:10:36.247Z,9.20
2019-05-12T06:11:34.498Z,10.70
2019-05-12T06:12:33.513Z,10.00
2019-05-12T06:13:34.539Z,11.00
2019-05-12T06:14:34.197Z,11.50
2019-05-12T06:15:35.728Z,9.20
2019-05-12T06:16:34.182Z,10.30
2019-05-12T06:17:34.123Z,7.40
2019-05-12T06:18:33.459Z,8.40
2019-05-12T06:19:34.233Z,8.20
2019-05-12T06:20:37.491Z,8.20
2019-05-12T06:21:38.068Z,10.70
2019-05-12T06:22:34.309Z,11.30
2019-05-12T06:23:34.823Z,8.90
2019-05-12T06:24:33.590Z,9.40
2019-05-12T06:25:44.994Z,10.10
2019-05-12T06:26:35.831Z,10.40
2019-05-12T06:27:33.659Z,12.50
2019-05-12T06:28:39.422Z,10.60
2019-05-12T06:29:33.475Z,14.10
2019-05-12T06:30:37.559Z,12.10
2019-05-12T06:31:33.636Z,9.90
2019-05-12T06:32:33.630Z,8.60
2019-05-12T06:33:36.116Z,11.20
2019-05-12T06:34:34.290Z,10.40
2019-05-12T06:35:39.999Z,8.40
2019-05-12T06:36:34.153Z,9.70
2019-05-12T06:37:33.856Z,7.40
2019-05-12T06:38:38.690Z,8.10
2019-05-12T06:39:34.370Z,8.20
2019-05-12T06:40:40.424Z,10.20
2019-05-12T06:41:33.852Z,10.30
2019-05-12T06:42:34.159Z,10.90
2019-05-12T06:43:35.274Z,7.80
2019-05-12T06:44:33.531Z,7.50
2019-05-12T06:45:34.088Z,9.40
2019-05-12T06:46:34.243Z,9.20
2019-05-12T06:47:34.367Z,8.30
2019-05-12T06:48:33.216Z,9.60
2019-05-12T06:49:33.681Z,9.80
2019-05-12T06:50:36.868Z,10.60
2019-05-12T06:51:33.900Z,10.50
2019-05-12T06:52:33.742Z,11.70
2019-05-12T06:53:33.663Z,10.70
2019-05-12T06:54:33.561Z,12.30
2019-05-12T06:55:34.340Z,13.80
2019-05-12T06:56:34.256Z,9.40
2019-05-12T06:57:34.106Z,10.70
2019-05-12T06:58:34.393Z,11.10
2019-05-12T06:59:33.860Z,11.40
2019-05-12T07:00:34.745Z,11.90
2019-05-12T07:01:33.437Z,8.00
2019-05-12T07:02:37.182Z,12.10
2019-05-12T07:03:37.048Z,9.90
2019-05-12T07:04:33.897Z,8.90
2019-05-12T07:05:33.800Z,11.50
2019-05-12T07:06:33.883Z,7.80
2019-05-12T07:07:33.454Z,9.00
2019-05-12T07:08:38.267Z,8.40
2019-05-12T07:09:35.356Z,12.30
2019-05-12T07:10:41.681Z,10.30
2019-05-12T07:11:44.570Z,9.10
2019-05-12T07:12:43.482Z,8.00
2019-05-12T07:13:34.231Z,8.20
2019-05-12T07:14:34.362Z,8.70
2019-05-12T07:15:35.712Z,7.20
2019-05-12T07:16:34.083Z,10.60
2019-05-12T07:17:35.658Z,8.40
2019-05-12T07:18:36.960Z,11.10
2019-05-12T07:19:33.744Z,8.10
2019-05-12T07:20:37.141Z,8.20
2019-05-12T07:21:33.512Z,10.20
2019-05-12T07:22:43.696Z,9.30
2019-05-12T07:23:33.758Z,7.10
2019-05-12T07:24:34.053Z,8.70
2019-05-12T07:25:36.367Z,10.20
2019-05-12T07:26:33.785Z,10.80
2019-05-12T07:27:36.586Z,10.70
2019-05-12T07:28:36.351Z,9.40
2019-05-12T07:29:34.345Z,12.80
2019-05-12T07:30:34.829Z,10.20
2019-05-12T07:31:33.709Z,8.70
2019-05-12T07:32:34.263Z,8.20
2019-05-12T07:33:35.236Z,6.10
2019-05-12T07:34:33.385Z,6.50
2019-05-12T07:35:33.809Z,8.70
2019-05-12T07:36:33.332Z,5.70
2019-05-12T07:37:33.638Z,3.70
2019-05-12T07:38:33.825Z,5.10
2019-05-12T07:39:37.019Z,5.70
2019-05-12T07:40:37.258Z,6.50
2019-05-12T07:41:34.032Z,6.90
2019-05-12T07:42:38.923Z,6.10
2019-05-12T07:43:33.774Z,5.30
2019-05-12T07:44:39.734Z,4.50
2019-05-12T07:45:34.018Z,6.50
2019-05-12T07:46:34.068Z,4.10
2019-05-12T07:47:33.140Z,5.10
2019-05-12T07:48:33.415Z,5.50
2019-05-12T07:49:35.224Z,6.50
2019-05-12T07:50:34.495Z,4.30
2019-05-12T07:51:38.354Z,5.10
2019-05-12T07:52:33.772Z,4.10
2019-05-12T07:53:33.750Z,6.10
2019-05-12T07:54:35.365Z,5.10
2019-05-12T07:55:34.149Z,5.50
2019-05-12T07:56:33.526Z,6.30
2019-05-12T07:57:34.551Z,6.30
2019-05-12T07:58:33.326Z,5.60
2019-05-12T07:59:38.858Z,7.00
2019-05-12T08:00:33.937Z,4.80
2019-05-12T08:01:35.818Z,6.60
2019-05-12T08:02:35.524Z,5.80
2019-05-12T08:03:31.450Z,6.10
2019-05-12T08:04:39.565Z,5.80
2019-05-12T08:05:33.818Z,7.10
2019-05-12T08:06:34.713Z,5.10
2019-05-12T08:07:33.733Z,6.80
2019-05-12T08:08:31.399Z,9.90
2019-05-12T08:09:33.195Z,6.10
2019-05-12T08:10:31.406Z,6.00
2019-05-12T08:11:34.705Z,10.10
2019-05-12T08:12:34.034Z,9.70
2019-05-12T08:13:36.526Z,7.20
2019-05-12T08:14:33.144Z,5.20
2019-05-12T08:15:33.736Z,5.50
2019-05-12T08:16:36.179Z,7.10
2019-05-12T08:17:33.717Z,6.00
2019-05-12T08:18:36.986Z,7.30
2019-05-12T08:19:33.791Z,8.90
2019-05-12T08:20:31.294Z,8.00
2019-05-12T08:21:34.729Z,6.80
2019-05-12T08:22:34.535Z,6.00
2019-05-12T08:23:31.234Z,5.30
2019-05-12T08:24:35.399Z,5.90
2019-05-12T08:25:34.295Z,4.20
2019-05-12T08:26:33.354Z,6.00
2019-05-12T08:27:31.191Z,5.50
2019-05-12T08:28:36.207Z,4.50
2019-05-12T08:29:34.164Z,7.90
2019-05-12T08:30:33.099Z,6.50
2019-05-12T08:31:32.622Z,4.20
2019-05-12T08:32:33.858Z,4.40
2019-05-12T08:33:31.141Z,3.50
2019-05-12T08:34:31.132Z,4.40
2019-05-12T08:35:35.144Z,6.10
2019-05-12T08:36:33.417Z,4.20
2019-05-12T08:37:33.269Z,5.30
2019-05-12T08:38:31.072Z,4.50
2019-05-12T08:39:33.587Z,4.90
2019-05-12T08:40:31.063Z,7.80
2019-05-12T08:41:31.043Z,4.50
2019-05-12T08:42:31.049Z,4.60
2019-05-12T08:43:31.019Z,5.90
2019-05-12T08:44:40.424Z,3.20
2019-05-12T08:45:37.022Z,4.30
2019-05-12T08:46:34.186Z,5.60
2019-05-12T08:47:35.595Z,7.70
2019-05-12T08:48:34.154Z,5.60
2019-05-12T08:49:35.824Z,4.40
2019-05-12T08:50:35.791Z,6.50
2019-05-12T08:51:30.936Z,8.20
2019-05-12T08:52:37.304Z,4.80
2019-05-12T08:53:33.659Z,5.90
2019-05-12T08:54:30.900Z,3.60
2019-05-12T08:55:31.281Z,6.80
2019-05-12T08:56:33.106Z,3.60
2019-05-12T08:57:34.858Z,5.20
2019-05-12T08:58:46.543Z,7.20
2019-05-12T08:59:34.037Z,5.80
2019-05-12T09:00:30.834Z,5.20
2019-05-12T09:01:30.983Z,5.20
2019-05-12T09:02:30.815Z,6.80
2019-05-12T09:03:33.574Z,3.60
2019-05-12T09:04:30.793Z,5.40
2019-05-12T09:05:34.314Z,4.40
2019-05-12T09:06:34.166Z,4.20
2019-05-12T09:07:35.969Z,4.40
2019-05-12T09:08:37.885Z,5.80
2019-05-12T09:09:33.650Z,6.70
2019-05-12T09:10:30.736Z,6.10
2019-05-12T09:11:30.715Z,6.20
2019-05-12T09:12:30.712Z,5.50
2019-05-12T09:13:30.704Z,4.90
2019-05-12T09:14:33.544Z,7.00
2019-05-12T09:15:31.674Z,4.90
2019-05-12T09:16:30.670Z,5.00
2019-05-12T09:17:30.653Z,7.40
2019-05-12T09:18:35.236Z,4.40
2019-05-12T09:19:33.185Z,5.30
2019-05-12T09:20:30.635Z,5.00
2019-05-12T09:21:34.377Z,6.60
2019-05-12T09:22:31.601Z,6.60
2019-05-12T09:23:32.785Z,4.20
2019-05-12T09:24:33.354Z,5.80
2019-05-12T09:25:30.568Z,4.20
2019-05-12T09:26:30.557Z,5.30
2019-05-12T09:27:30.555Z,6.30
2019-05-12T09:28:44.416Z,5.70
2019-05-12T09:29:31.525Z,4.70
2019-05-12T09:30:30.513Z,4.10
2019-05-12T09:31:30.503Z,6.10
2019-05-12T09:32:30.490Z,6.80
2019-05-12T09:33:34.111Z,5.30
2019-05-12T09:34:30.471Z,5.10
2019-05-12T09:35:35.116Z,3.80
2019-05-12T09:36:33.641Z,3.00
2019-05-12T09:37:30.897Z,4.40
2019-05-12T09:38:33.230Z,9.20
2019-05-12T09:39:36.436Z,5.10
2019-05-12T09:40:31.441Z,4.90
2019-05-12T09:41:35.990Z,3.30
2019-05-12T09:42:33.022Z,3.50
2019-05-12T09:43:30.372Z,4.00
2019-05-12T09:44:30.691Z,3.90
2019-05-12T09:45:30.352Z,3.40
2019-05-12T09:46:34.234Z,4.70
2019-05-12T09:47:31.332Z,3.10
2019-05-12T09:48:30.319Z,3.80
2019-05-12T09:49:32.136Z,3.20
2019-05-12T09:50:31.294Z,3.90
2019-05-12T09:51:35.219Z,2.50
2019-05-12T09:52:32.965Z,3.50
2019-05-12T09:53:30.276Z,4.30
2019-05-12T09:54:35.378Z,4.40
2019-05-12T09:55:31.264Z,2.90
2019-05-12T09:56:30.230Z,4.10
2019-05-12T09:57:32.466Z,3.00
2019-05-12T09:58:33.618Z,4.80
2019-05-12T09:59:30.214Z,3.60
2019-05-12T10:00:35.205Z,3.40
2019-05-12T10:01:37.294Z,5.30
2019-05-12T10:02:31.167Z,3.80
2019-05-12T10:03:30.897Z,2.10
2019-05-12T10:04:33.090Z,2.90
2019-05-12T10:05:30.564Z,3.90
2019-05-12T10:06:33.773Z,3.20
2019-05-12T10:07:30.112Z,3.60
2019-05-12T10:08:35.892Z,2.90
2019-05-12T10:09:33.433Z,2.80
2019-05-12T10:10:38.118Z,4.00
2019-05-12T10:11:31.070Z,4.60
2019-05-12T10:12:35.268Z,2.70
2019-05-12T10:13:31.048Z,3.10
2019-05-12T10:14:30.042Z,2.20
2019-05-12T10:15:30.030Z,7.10
2019-05-12T10:16:30.055Z,2.70
2019-05-12T10:17:30.436Z,2.90
2019-05-12T10:18:29.994Z,4.60
2019-05-12T10:19:29.983Z,2.00
2019-05-12T10:20:35.259Z,2.80
2019-05-12T10:21:31.003Z,3.10
2019-05-12T10:22:34.660Z,2.80
2019-05-12T10:23:30.941Z,2.70
2019-05-12T10:24:32.744Z,3.00
2019-05-12T10:25:30.924Z,3.00
2019-05-12T10:26:29.908Z,4.00
2019-05-12T10:27:32.044Z,2.80
2019-05-12T10:28:29.893Z,2.90
2019-05-12T10:29:30.980Z,3.80
2019-05-12T10:30:29.871Z,2.80
2019-05-12T10:31:34.817Z,2.10
2019-05-12T10:32:30.869Z,3.50
2019-05-12T10:33:29.832Z,3.80
2019-05-12T10:34:38.109Z,3.30
2019-05-12T10:35:30.869Z,3.30
2019-05-12T10:36:39.058Z,2.40
2019-05-12T10:37:30.813Z,2.10
2019-05-12T10:38:29.782Z,3.40
2019-05-12T10:39:29.770Z,3.40
2019-05-12T10:40:29.765Z,3.50
2019-05-12T10:41:29.758Z,2.70
2019-05-12T10:42:29.933Z,3.30
2019-05-12T10:43:29.747Z,3.40
2019-05-12T10:44:35.579Z,2.50
2019-05-12T10:45:30.716Z,2.60
2019-05-12T10:46:29.697Z,5.20
2019-05-12T10:47:29.711Z,3.60
2019-05-12T10:48:29.693Z,4.20
2019-05-12T10:49:29.711Z,3.50
2019-05-12T10:50:29.655Z,2.70
2019-05-12T10:51:29.664Z,2.70
2019-05-12T10:52:34.291Z,3.30
2019-05-12T10:53:30.622Z,3.30
2019-05-12T10:54:29.607Z,3.50
2019-05-12T10:55:29.604Z,3.10
2019-05-12T10:56:29.652Z,3.40
2019-05-12T10:57:29.582Z,2.60
2019-05-12T10:58:29.589Z,7.20
2019-05-12T10:59:33.217Z,3.70
2019-05-12T11:00:29.580Z,3.40
2019-05-12T11:01:29.528Z,2.10
2019-05-12T11:02:30.637Z,2.00
2019-05-12T11:03:29.609Z,2.90
2019-05-12T11:04:36.922Z,4.00
2019-05-12T11:05:30.524Z,3.40
2019-05-12T11:06:29.487Z,2.30
2019-05-12T11:07:30.031Z,2.60
2019-05-12T11:08:29.482Z,2.50
2019-05-12T11:09:31.641Z,4.00
2019-05-12T11:10:29.437Z,2.70
2019-05-12T11:11:32.929Z,3.20
2019-05-12T11:12:30.415Z,3.80
2019-05-12T11:13:29.410Z,3.50
2019-05-12T11:14:30.579Z,2.20
2019-05-12T11:15:29.376Z,4.20
2019-05-12T11:16:30.919Z,4.00
2019-05-12T11:17:29.388Z,2.00
2019-05-12T11:18:30.591Z,2.10
2019-05-12T11:19:29.342Z,2.50
2019-05-12T11:20:29.352Z,4.40
2019-05-12T11:21:29.312Z,2.90
2019-05-12T11:22:29.321Z,3.20
2019-05-12T11:23:29.416Z,2.40
2019-05-12T11:24:29.281Z,3.70
2019-05-12T11:25:29.292Z,3.20
2019-05-12T11:26:29.265Z,2.30
2019-05-12T11:27:29.247Z,4.50
2019-05-12T11:28:29.238Z,3.30
2019-05-12T11:29:41.715Z,2.60
2019-05-12T11:30:30.212Z,4.20
2019-05-12T11:31:29.201Z,2.20
2019-05-12T11:32:34.689Z,3.00
2019-05-12T11:33:30.184Z,3.60
2019-05-12T11:34:29.186Z,3.50
2019-05-12T11:35:29.186Z,2.40
2019-05-12T11:36:29.186Z,3.60
2019-05-12T11:37:29.194Z,4.10
2019-05-12T11:38:29.129Z,3.00
2019-05-12T11:39:30.556Z,2.10
2019-05-12T11:40:30.137Z,2.70
2019-05-12T11:41:29.096Z,3.40
2019-05-12T11:42:29.090Z,3.60
2019-05-12T11:43:29.892Z,2.40
2019-05-12T11:44:29.063Z,2.40
2019-05-12T11:45:29.091Z,6.00
2019-05-12T11:46:29.052Z,2.60
2019-05-12T11:47:29.054Z,2.70
2019-05-12T11:48:29.015Z,2.20
2019-05-12T11:49:29.003Z,2.40
2019-05-12T11:50:29.137Z,3.00
2019-05-12T11:51:30.553Z,5.10
2019-05-12T11:52:28.977Z,3.70
2019-05-12T11:53:31.007Z,2.70
2019-05-12T11:54:41.146Z,2.90
2019-05-12T11:55:31.711Z,3.00
2019-05-12T11:56:28.949Z,3.00
2019-05-12T11:57:30.418Z,3.70
2019-05-12T11:58:28.912Z,3.10
2019-05-12T11:59:28.903Z,2.50
2019-05-12T12:00:28.904Z,2.40
2019-05-12T12:01:28.894Z,3.50
2019-05-12T12:02:30.662Z,2.30
2019-05-12T12:03:28.875Z,2.80
2019-05-12T12:04:28.853Z,3.80
2019-05-12T12:05:28.833Z,2.10
2019-05-12T12:06:28.878Z,2.60
2019-05-12T12:07:28.835Z,2.20
2019-05-12T12:08:35.258Z,3.90
2019-05-12T12:10:20.601Z,4.30
2019-05-12T12:11:25.569Z,5.00
2019-05-12T12:12:28.166Z,3.30
2019-05-12T12:13:25.712Z,3.90
2019-05-12T12:15:30.536Z,5.00
2019-05-12T12:16:41.982Z,3.50
2019-05-12T12:17:33.582Z,3.70
2019-05-12T12:18:39.255Z,3.40
2019-05-12T12:19:34.927Z,2.50
2019-05-12T12:20:33.525Z,3.00
2019-05-12T12:21:40.387Z,3.60
2019-05-12T12:22:31.232Z,2.60
2019-05-12T12:23:30.254Z,4.70
2019-05-12T12:24:31.628Z,3.20
2019-05-12T12:25:30.246Z,3.10
2019-05-12T12:26:31.618Z,3.20
2019-05-12T12:27:30.279Z,2.90
2019-05-12T12:28:30.180Z,3.20
2019-05-12T12:29:30.155Z,2.90
2019-05-12T12:30:30.176Z,3.30
2019-05-12T12:31:35.588Z,3.20
2019-05-12T12:33:41.001Z,5.40
2019-05-12T12:34:47.522Z,3.30
2019-05-12T12:35:39.854Z,2.80
2019-05-12T12:36:47.402Z,3.40
2019-05-12T12:37:39.815Z,2.90
2019-05-12T12:38:47.358Z,2.70
2019-05-12T12:39:39.930Z,4.20
2019-05-12T12:40:47.420Z,2.50
2019-05-12T12:41:44.157Z,3.30
2019-05-12T12:43:49.508Z,4.10
2019-05-12T12:44:53.464Z,2.70
2019-05-12T12:47:01.560Z,5.30
2019-05-12T12:47:59.184Z,3.00
2019-05-12T12:49:10.416Z,3.10
2019-05-12T12:49:59.288Z,2.30
2019-05-12T12:51:07.730Z,2.80
2019-05-12T12:51:59.139Z,6.30
2019-05-12T12:52:59.222Z,4.00
2019-05-12T12:53:59.188Z,5.00
2019-05-12T12:55:03.946Z,3.70
2019-05-12T12:56:00.191Z,3.70
2019-05-12T12:57:03.450Z,3.70
2019-05-12T12:58:00.171Z,4.50
2019-05-12T12:59:01.928Z,3.70
2019-05-12T13:00:00.088Z,3.40
2019-05-12T13:00:59.125Z,2.70
2019-05-12T13:02:04.384Z,3.40
2019-05-12T13:03:00.018Z,4.60
2019-05-12T13:04:03.923Z,3.60
2019-05-12T13:05:00.070Z,3.80
2019-05-12T13:05:59.008Z,3.80
2019-05-12T13:06:59.019Z,3.50
2019-05-12T13:07:58.963Z,3.90
2019-05-12T13:08:58.947Z,4.40
2019-05-12T13:10:07.403Z,3.00
2019-05-12T13:10:59.948Z,2.40
2019-05-12T13:11:58.921Z,3.50
2019-05-12T13:13:00.921Z,5.50
2019-05-12T13:13:58.908Z,3.60
2019-05-12T13:14:58.895Z,4.80
2019-05-12T13:15:58.901Z,3.20
2019-05-12T13:16:58.879Z,3.30
2019-05-12T13:17:58.866Z,4.70
2019-05-12T13:19:06.092Z,3.90
2019-05-12T13:19:59.850Z,3.00